createdAt,value
2023-05-13T00:01:19.225Z,101915.91
2023-05-13T00:03:45.835Z,101906.03
2023-05-13T00:06:12.473Z,101901.59
2023-05-13T00:08:39.078Z,101918.53
2023-05-13T00:11:05.819Z,101914.25
2023-05-13T00:13:32.378Z,101917.91
2023-05-13T00:15:58.974Z,101912.63
2023-05-13T00:18:25.617Z,101911.78
2023-05-13T00:20:52.262Z,101908.31
2023-05-13T00:23:18.814Z,101904.75
2023-05-13T00:25:45.374Z,101911.88
2023-05-13T00:28:11.947Z,101914.69
2023-05-13T00:30:38.519Z,101910.34
2023-05-13T00:33:05.098Z,101909.50
2023-05-13T00:35:31.670Z,101920.22
2023-05-13T00:37:58.220Z,101910.44
2023-05-13T00:40:24.880Z,101914.88
2023-05-13T00:42:51.554Z,101906.13
2023-05-13T00:45:18.236Z,101911.41
2023-05-13T00:47:44.765Z,101915.81
2023-05-13T00:50:11.395Z,101912.25
2023-05-13T00:52:38.908Z,101916.72
2023-05-13T00:55:05.913Z,101915.09
2023-05-13T00:57:32.785Z,101906.28
2023-05-13T00:59:59.441Z,101909.81
2023-05-13T01:02:39.604Z,101911.56
2023-05-13T01:05:27.417Z,101906.28
2023-05-13T01:08:11.874Z,101904.66
2023-05-13T01:10:44.888Z,101911.81
2023-05-13T01:13:16.273Z,101912.75
2023-05-13T01:15:49.399Z,101919.00
2023-05-13T01:18:25.241Z,101907.53
2023-05-13T01:20:51.833Z,101913.63
2023-05-13T01:23:18.394Z,101915.34
2023-05-13T01:25:44.901Z,101913.78
2023-05-13T01:28:11.436Z,101920.22
2023-05-13T01:30:38.020Z,101906.97
2023-05-13T01:33:04.582Z,101920.44
2023-05-13T01:35:31.495Z,101920.44
2023-05-13T01:37:58.111Z,101924.88
2023-05-13T01:40:32.412Z,101915.16
2023-05-13T01:42:59.630Z,101920.69
2023-05-13T01:45:28.817Z,101922.66
2023-05-13T01:47:55.402Z,101926.31
2023-05-13T01:50:22.248Z,101929.84
2023-05-13T01:52:49.005Z,101921.06
2023-05-13T01:55:15.631Z,101921.13
2023-05-13T01:57:42.176Z,101926.47
2023-05-13T02:00:09.178Z,101926.56
2023-05-13T02:02:35.860Z,101924.69
2023-05-13T02:05:02.447Z,101928.25
2023-05-13T02:07:28.981Z,101922.97
2023-05-13T02:09:55.530Z,101921.19
2023-05-13T02:12:22.096Z,101920.34
2023-05-13T02:14:48.701Z,101916.88
2023-05-13T02:17:15.244Z,101924.88
2023-05-13T02:19:41.964Z,101921.47
2023-05-13T02:22:08.583Z,101926.75
2023-05-13T02:24:35.146Z,101912.59
2023-05-13T02:27:01.669Z,101922.53
2023-05-13T02:29:36.883Z,101924.38
2023-05-13T02:32:03.582Z,101921.78
2023-05-13T02:34:30.157Z,101925.38
2023-05-13T02:36:56.681Z,101918.31
2023-05-13T02:39:23.195Z,101915.63
2023-05-13T02:41:49.762Z,101921.81
2023-05-13T02:44:16.269Z,101920.91
2023-05-13T02:46:42.856Z,101920.91
2023-05-13T02:49:09.490Z,101924.56
2023-05-13T02:51:36.082Z,101924.66
2023-05-13T02:54:02.660Z,101921.16
2023-05-13T02:56:29.214Z,101925.59
2023-05-13T02:58:55.786Z,101913.22
2023-05-13T03:01:22.383Z,101928.34
2023-05-13T03:03:48.957Z,101922.09
2023-05-13T03:06:15.540Z,101915.91
2023-05-13T03:08:42.070Z,101918.53
2023-05-13T03:11:08.601Z,101920.34
2023-05-13T03:13:35.193Z,101925.69
2023-05-13T03:16:01.758Z,101923.91
2023-05-13T03:18:28.355Z,101923.03
2023-05-13T03:20:54.946Z,101925.78
2023-05-13T03:23:21.482Z,101925.91
2023-05-13T03:25:48.012Z,101933.94
2023-05-13T03:28:14.554Z,101932.16
2023-05-13T03:30:41.066Z,101925.06
2023-05-13T03:33:07.638Z,101924.13
2023-05-13T03:35:34.159Z,101923.28
2023-05-13T03:38:00.719Z,101933.16
2023-05-13T03:40:27.284Z,101927.00
2023-05-13T03:42:53.860Z,101924.38
2023-05-13T03:45:20.403Z,101933.16
2023-05-13T03:47:47.017Z,101930.41
2023-05-13T03:50:13.711Z,101931.19
2023-05-13T03:52:40.249Z,101924.09
2023-05-13T03:55:07.039Z,101916.84
2023-05-13T03:57:33.595Z,101927.47
2023-05-13T04:00:00.154Z,101931.78
2023-05-13T04:02:26.775Z,101931.84
2023-05-13T04:04:53.432Z,101931.75
2023-05-13T04:07:19.970Z,101930.00
2023-05-13T04:09:46.553Z,101938.78
2023-05-13T04:12:13.050Z,101941.44
2023-05-13T04:14:39.580Z,101936.19
2023-05-13T04:17:06.243Z,101935.25
2023-05-13T04:19:32.879Z,101938.75
2023-05-13T04:21:59.475Z,101941.41
2023-05-13T04:24:26.021Z,101945.69
2023-05-13T04:26:52.571Z,101943.88
2023-05-13T04:29:19.140Z,101954.56
2023-05-13T04:31:45.738Z,101949.22
2023-05-13T04:34:12.304Z,101942.19
2023-05-13T04:36:38.832Z,101931.66
2023-05-13T04:39:05.425Z,101952.81
2023-05-13T04:41:31.933Z,101955.47
2023-05-13T04:43:58.561Z,101957.06
2023-05-13T04:46:25.147Z,101943.66
2023-05-13T04:48:51.810Z,101951.59
2023-05-13T04:51:18.982Z,101965.75
2023-05-13T04:53:45.896Z,101960.41
2023-05-13T04:56:12.474Z,101958.63
2023-05-13T04:58:39.017Z,101969.19
2023-05-13T05:01:05.698Z,101965.63
2023-05-13T05:03:32.331Z,101957.59
2023-05-13T05:05:58.989Z,101961.16
2023-05-13T05:08:25.533Z,101958.47
2023-05-13T05:10:52.055Z,101964.56
2023-05-13T05:13:18.667Z,101967.97
2023-05-13T05:15:45.276Z,101960.84
2023-05-13T05:18:11.868Z,101963.50
2023-05-13T05:20:38.571Z,101970.56
2023-05-13T05:23:05.170Z,101971.41
2023-05-13T05:25:31.723Z,101975.75
2023-05-13T05:27:58.325Z,101971.28
2023-05-13T05:30:25.006Z,101981.06
2023-05-13T05:32:51.710Z,101979.09
2023-05-13T05:35:18.393Z,101971.81
2023-05-13T05:37:45.051Z,101977.09
2023-05-13T05:40:12.023Z,101980.50
2023-05-13T05:42:38.570Z,101976.88
2023-05-13T05:45:05.449Z,101971.38
2023-05-13T05:47:32.041Z,101978.34
2023-05-13T05:49:58.632Z,101973.59
2023-05-13T05:52:25.206Z,101983.31
2023-05-13T05:54:51.777Z,101980.63
2023-05-13T05:57:18.760Z,101982.34
2023-05-13T05:59:45.330Z,101984.06
2023-05-13T06:02:11.994Z,101986.69
2023-05-13T06:04:38.741Z,101973.28
2023-05-13T06:07:05.580Z,101984.69
2023-05-13T06:09:32.187Z,101981.06
2023-05-13T06:11:58.777Z,101985.38
2023-05-13T06:14:25.358Z,101981.69
2023-05-13T06:16:53.524Z,101981.53
2023-05-13T06:19:20.843Z,101979.72
2023-05-13T06:21:47.367Z,101978.66
2023-05-13T06:24:14.005Z,101976.78
2023-05-13T06:26:40.547Z,101984.50
2023-05-13T06:29:07.156Z,101982.56
2023-05-13T06:31:33.695Z,101978.94
2023-05-13T06:34:00.315Z,101980.53
2023-05-13T06:36:26.851Z,101984.53
2023-05-13T06:38:53.615Z,101981.75
2023-05-13T06:41:20.074Z,101979.69
2023-05-13T06:43:46.690Z,101989.31
2023-05-13T06:46:13.238Z,101990.13
2023-05-13T06:48:39.752Z,101992.75
2023-05-13T06:51:06.305Z,101995.22
2023-05-13T06:53:32.834Z,101987.00
2023-05-13T06:55:59.402Z,101997.38
2023-05-13T06:58:26.000Z,101990.09
2023-05-13T07:00:52.543Z,101997.09
2023-05-13T07:03:19.183Z,101995.03
2023-05-13T07:05:45.812Z,101985.88
2023-05-13T07:08:12.348Z,101988.16
2023-05-13T07:10:38.897Z,101994.19
2023-05-13T07:13:06.372Z,101981.53
2023-05-13T07:15:32.976Z,101982.31
2023-05-13T07:17:59.513Z,101982.09
2023-05-13T07:20:26.155Z,101984.56
2023-05-13T07:22:52.675Z,101983.44
2023-05-13T07:25:19.244Z,101978.47
2023-05-13T07:27:45.862Z,101979.97
2023-05-13T07:30:12.710Z,101983.25
2023-05-13T07:32:39.599Z,101984.00
2023-05-13T07:35:06.777Z,101982.16
2023-05-13T07:37:33.312Z,101982.84
2023-05-13T07:39:59.855Z,101982.63
2023-05-13T07:42:26.396Z,101976.78
2023-05-13T07:44:52.958Z,101971.03
2023-05-13T07:47:19.661Z,101975.44
2023-05-13T07:49:46.414Z,101976.06
2023-05-13T07:52:13.038Z,101973.84
2023-05-13T07:54:39.634Z,101982.41
2023-05-13T07:57:06.424Z,101973.94
2023-05-13T07:59:32.999Z,101976.19
2023-05-13T08:01:59.544Z,101976.59
2023-05-13T08:04:26.215Z,101968.09
2023-05-13T08:06:52.910Z,101968.66
2023-05-13T08:09:19.548Z,101967.47
2023-05-13T08:11:46.068Z,101979.66
2023-05-13T08:14:12.614Z,101967.66
2023-05-13T08:16:39.220Z,101976.09
2023-05-13T08:19:05.912Z,101972.19
2023-05-13T08:21:32.545Z,101969.88
2023-05-13T08:23:59.161Z,101971.22
2023-05-13T08:26:25.755Z,101976.84
2023-05-13T08:28:54.755Z,101969.16
2023-05-13T08:31:21.856Z,101976.69
2023-05-13T08:33:48.433Z,101969.84
2023-05-13T08:36:15.042Z,101977.41
2023-05-13T08:38:41.558Z,101964.91
2023-05-13T08:41:08.107Z,101972.66
2023-05-13T08:43:34.668Z,101968.44
2023-05-13T08:46:03.160Z,101967.69
2023-05-13T08:48:30.059Z,101974.06
2023-05-13T08:50:56.910Z,101956.34
2023-05-13T08:53:23.655Z,101965.38
2023-05-13T08:55:50.294Z,101965.13
2023-05-13T08:58:16.845Z,101950.78
2023-05-13T09:00:43.415Z,101955.38
2023-05-13T09:03:10.022Z,101959.72
2023-05-13T09:05:38.831Z,101963.56
2023-05-13T09:08:07.744Z,101966.59
2023-05-13T09:10:34.374Z,101975.50
2023-05-13T09:13:00.898Z,101966.47
2023-05-13T09:15:27.644Z,101968.28
2023-05-13T09:18:00.331Z,101963.25
2023-05-13T09:20:27.091Z,101954.22
2023-05-13T09:22:58.857Z,101955.63
2023-05-13T09:25:25.566Z,101963.94
2023-05-13T09:27:53.655Z,101958.88
2023-05-13T09:30:20.691Z,101957.53
2023-05-13T09:33:12.604Z,101957.88
2023-05-13T09:35:48.692Z,101950.53
2023-05-13T09:38:22.414Z,101956.81
2023-05-13T09:40:52.401Z,101957.78
2023-05-13T09:43:23.393Z,101956.38
2023-05-13T09:45:56.619Z,101950.66
2023-05-13T09:48:25.332Z,101954.56
2023-05-13T09:50:51.884Z,101962.13
2023-05-13T09:53:18.602Z,101954.28
2023-05-13T09:55:48.673Z,101955.94
2023-05-13T09:58:15.242Z,101956.47
2023-05-13T10:00:42.289Z,101945.38
2023-05-13T10:03:09.724Z,101950.13
2023-05-13T10:05:36.332Z,101957.03
2023-05-13T10:08:03.097Z,101953.22
2023-05-13T10:10:30.760Z,101951.53
2023-05-13T10:12:59.923Z,101942.81
2023-05-13T10:15:26.661Z,101957.28
2023-05-13T10:17:53.255Z,101950.97
2023-05-13T10:20:20.021Z,101950.47
2023-05-13T10:22:46.831Z,101937.38
2023-05-13T10:25:13.336Z,101929.59
2023-05-13T10:27:39.920Z,101936.78
2023-05-13T10:30:06.999Z,101936.00
2023-05-13T10:32:33.589Z,101941.38
2023-05-13T10:35:06.683Z,101941.41
2023-05-13T10:37:43.618Z,101920.06
2023-05-13T10:40:22.821Z,101930.53
2023-05-13T10:43:39.297Z,101936.00
2023-05-13T10:46:11.923Z,101936.47
2023-05-13T10:48:42.640Z,101932.19
2023-05-13T10:51:10.074Z,101926.34
2023-05-13T10:53:43.099Z,101926.34
2023-05-13T10:56:09.646Z,101938.41
2023-05-13T10:58:36.247Z,101925.22
2023-05-13T11:01:19.503Z,101927.41
2023-05-13T11:03:53.650Z,101923.28
2023-05-13T11:06:24.665Z,101925.13
2023-05-13T11:08:53.083Z,101922.50
2023-05-13T11:11:21.669Z,101928.06
2023-05-13T11:14:00.151Z,101924.59
2023-05-13T11:16:26.682Z,101921.41
2023-05-13T11:18:53.285Z,101920.78
2023-05-13T11:21:33.158Z,101922.50
2023-05-13T11:24:04.894Z,101908.56
2023-05-13T11:26:49.606Z,101913.34
2023-05-13T11:29:34.788Z,101915.53
2023-05-13T11:32:02.674Z,101907.41
2023-05-13T11:34:29.333Z,101903.88
2023-05-13T11:37:04.968Z,101903.13
2023-05-13T11:39:32.854Z,101903.50
2023-05-13T11:41:59.429Z,101898.22
2023-05-13T11:44:26.015Z,101893.50
2023-05-13T11:46:56.279Z,101898.97
2023-05-13T11:49:45.083Z,101909.16
2023-05-13T11:52:12.918Z,101892.81
2023-05-13T11:54:50.151Z,101894.72
2023-05-13T11:57:22.347Z,101903.38
2023-05-13T12:00:02.568Z,101901.63
2023-05-13T12:02:29.974Z,101887.34
2023-05-13T12:04:59.994Z,101892.06
2023-05-13T12:07:26.622Z,101895.91
2023-05-13T12:09:54.273Z,101886.25
2023-05-13T12:12:20.837Z,101883.91
2023-05-13T12:14:47.711Z,101889.03
2023-05-13T12:17:14.210Z,101885.16
2023-05-13T12:19:41.028Z,101894.06
2023-05-13T12:22:08.145Z,101893.63
2023-05-13T12:24:34.633Z,101894.81
2023-05-13T12:27:08.626Z,101886.69
2023-05-13T12:29:43.265Z,101890.66
2023-05-13T12:32:09.990Z,101892.69
2023-05-13T12:34:36.533Z,101884.88
2023-05-13T12:37:12.656Z,101899.59
2023-05-13T12:39:42.284Z,101896.75
2023-05-13T12:42:18.133Z,101901.78
2023-05-13T12:44:44.876Z,101894.56
2023-05-13T12:47:11.580Z,101897.16
2023-05-13T12:49:57.780Z,101900.31
2023-05-13T12:52:24.363Z,101899.72
2023-05-13T12:54:50.915Z,101900.34
2023-05-13T12:57:17.790Z,101892.38
2023-05-13T12:59:44.761Z,101891.03
2023-05-13T13:02:11.728Z,101882.59
2023-05-13T13:04:38.314Z,101885.84
2023-05-13T13:07:05.270Z,101883.91
2023-05-13T13:09:31.887Z,101892.53
2023-05-13T13:11:58.468Z,101894.56
2023-05-13T13:14:25.021Z,101881.69
2023-05-13T13:16:51.579Z,101880.44
2023-05-13T13:19:18.188Z,101880.19
2023-05-13T13:21:44.786Z,101877.78
2023-05-13T13:24:11.328Z,101871.38
2023-05-13T13:26:37.879Z,101881.69
2023-05-13T13:29:04.442Z,101887.31
2023-05-13T13:31:30.994Z,101868.69
2023-05-13T13:33:57.565Z,101882.00
2023-05-13T13:36:24.082Z,101873.84
2023-05-13T13:38:50.645Z,101874.03
2023-05-13T13:41:17.168Z,101867.41
2023-05-13T13:43:43.678Z,101866.88
2023-05-13T13:46:10.273Z,101864.00
2023-05-13T13:48:36.814Z,101868.16
2023-05-13T13:51:03.394Z,101860.66
2023-05-13T13:53:29.954Z,101859.78
2023-05-13T13:55:56.486Z,101859.63
2023-05-13T13:58:23.002Z,101852.91
2023-05-13T14:00:49.569Z,101839.34
2023-05-13T14:03:16.240Z,101847.31
2023-05-13T14:05:42.818Z,101845.31
2023-05-13T14:08:09.384Z,101845.44
2023-05-13T14:10:35.926Z,101837.72
2023-05-13T14:13:02.444Z,101843.34
2023-05-13T14:15:29.000Z,101832.66
2023-05-13T14:17:55.638Z,101847.09
2023-05-13T14:20:22.705Z,101845.06
2023-05-13T14:22:49.520Z,101844.16
2023-05-13T14:25:16.164Z,101835.91
2023-05-13T14:27:42.701Z,101832.09
2023-05-13T14:30:09.548Z,101833.81
2023-05-13T14:32:36.094Z,101820.44
2023-05-13T14:35:02.723Z,101834.69
2023-05-13T14:37:29.303Z,101831.69
2023-05-13T14:39:55.988Z,101829.56
2023-05-13T14:42:22.556Z,101831.69
2023-05-13T14:44:49.150Z,101831.63
2023-05-13T14:47:15.676Z,101829.91
2023-05-13T14:49:42.227Z,101833.28
2023-05-13T14:52:08.760Z,101833.78
2023-05-13T14:54:35.286Z,101818.94
2023-05-13T14:57:02.991Z,101823.41
2023-05-13T14:59:29.527Z,101828.84
2023-05-13T15:01:56.162Z,101824.22
2023-05-13T15:04:23.516Z,101827.41
2023-05-13T15:06:50.029Z,101829.69
2023-05-13T15:09:16.577Z,101816.25
2023-05-13T15:11:43.126Z,101820.88
2023-05-13T15:14:09.914Z,101811.16
2023-05-13T15:16:36.515Z,101817.56
2023-05-13T15:19:03.200Z,101820.28
2023-05-13T15:21:29.811Z,101811.25
2023-05-13T15:23:56.360Z,101810.19
2023-05-13T15:26:22.944Z,101812.13
2023-05-13T15:28:49.496Z,101821.81
2023-05-13T15:31:16.139Z,101819.84
2023-05-13T15:33:45.028Z,101821.19
2023-05-13T15:36:11.775Z,101809.19
2023-05-13T15:38:38.843Z,101806.94
2023-05-13T15:41:05.428Z,101809.19
2023-05-13T15:43:32.129Z,101808.41
2023-05-13T15:45:58.866Z,101801.81
2023-05-13T15:48:25.436Z,101795.78
2023-05-13T15:50:52.035Z,101797.97
2023-05-13T15:53:18.613Z,101800.00
2023-05-13T15:55:45.132Z,101793.91
2023-05-13T15:58:11.688Z,101794.00
2023-05-13T16:00:38.224Z,101797.13
2023-05-13T16:03:04.798Z,101790.88
2023-05-13T16:05:31.388Z,101796.91
2023-05-13T16:07:57.948Z,101801.13
2023-05-13T16:10:24.802Z,101789.59
2023-05-13T16:12:51.593Z,101795.31
2023-05-13T16:15:18.208Z,101790.56
2023-05-13T16:17:44.768Z,101783.19
2023-05-13T16:20:19.737Z,101784.53
2023-05-13T16:22:46.376Z,101775.78
2023-05-13T16:25:12.933Z,101781.06
2023-05-13T16:27:39.828Z,101785.56
2023-05-13T16:30:07.148Z,101779.75
2023-05-13T16:32:33.778Z,101779.91
2023-05-13T16:35:00.510Z,101784.38
2023-05-13T16:37:27.425Z,101783.25
2023-05-13T16:39:53.979Z,101779.81
2023-05-13T16:42:20.525Z,101782.09
2023-05-13T16:44:47.312Z,101783.09
2023-05-13T16:47:13.980Z,101782.03
2023-05-13T16:49:40.584Z,101779.63
2023-05-13T16:52:07.340Z,101782.09
2023-05-13T16:54:34.010Z,101778.28
2023-05-13T16:57:00.594Z,101778.94
2023-05-13T16:59:27.590Z,101772.19
2023-05-13T17:01:54.493Z,101775.88
2023-05-13T17:04:21.112Z,101768.78
2023-05-13T17:06:47.858Z,101772.31
2023-05-13T17:09:14.415Z,101767.03
2023-05-13T17:11:41.000Z,101750.69
2023-05-13T17:14:07.558Z,101766.63
2023-05-13T17:16:34.102Z,101758.03
2023-05-13T17:19:00.708Z,101755.88
2023-05-13T17:21:27.244Z,101752.88
2023-05-13T17:23:53.744Z,101758.66
2023-05-13T17:26:20.342Z,101757.25
2023-05-13T17:28:46.888Z,101756.75
2023-05-13T17:31:13.556Z,101763.28
2023-05-13T17:33:40.119Z,101758.75
2023-05-13T17:36:07.042Z,101758.94
2023-05-13T17:38:33.608Z,101760.84
2023-05-13T17:41:00.164Z,101760.13
2023-05-13T17:43:26.755Z,101759.53
2023-05-13T17:45:53.279Z,101759.03
2023-05-13T17:48:19.894Z,101762.59
2023-05-13T17:50:46.691Z,101755.75
2023-05-13T17:53:13.249Z,101766.88
2023-05-13T17:55:39.787Z,101765.56
2023-05-13T17:58:06.333Z,101766.69
2023-05-13T18:00:33.031Z,101757.75
2023-05-13T18:02:59.680Z,101756.97
2023-05-13T18:05:26.340Z,101758.63
2023-05-13T18:07:52.992Z,101758.34
2023-05-13T18:10:19.734Z,101751.38
2023-05-13T18:12:46.436Z,101755.91
2023-05-13T18:15:12.937Z,101747.47
2023-05-13T18:17:39.707Z,101755.19
2023-05-13T18:20:06.961Z,101757.97
2023-05-13T18:22:33.531Z,101762.13
2023-05-13T18:25:00.055Z,101773.13
2023-05-13T18:27:26.615Z,101767.25
2023-05-13T18:29:53.167Z,101772.34
2023-05-13T18:32:19.689Z,101774.59
2023-05-13T18:34:46.220Z,101782.25
2023-05-13T18:37:12.767Z,101783.59
2023-05-13T18:39:39.320Z,101785.09
2023-05-13T18:42:06.150Z,101777.44
2023-05-13T18:44:32.694Z,101778.88
2023-05-13T18:46:59.221Z,101787.06
2023-05-13T18:49:25.823Z,101779.56
2023-05-13T18:51:52.391Z,101787.00
2023-05-13T18:54:18.897Z,101787.22
2023-05-13T18:56:45.472Z,101788.69
2023-05-13T18:59:12.957Z,101795.69
2023-05-13T19:01:39.563Z,101791.56
2023-05-13T19:04:06.365Z,101794.78
2023-05-13T19:06:35.064Z,101802.44
2023-05-13T19:09:01.622Z,101802.75
2023-05-13T19:11:28.160Z,101811.66
2023-05-13T19:13:54.734Z,101813.09
2023-05-13T19:16:21.409Z,101816.16
2023-05-13T19:18:48.028Z,101814.66
2023-05-13T19:21:14.643Z,101806.03
2023-05-13T19:23:41.163Z,101810.97
2023-05-13T19:26:07.750Z,101811.38
2023-05-13T19:28:34.606Z,101816.91
2023-05-13T19:31:01.172Z,101817.25
2023-05-13T19:33:27.732Z,101814.94
2023-05-13T19:35:54.286Z,101827.34
2023-05-13T19:38:20.896Z,101823.38
2023-05-13T19:40:47.415Z,101820.88
2023-05-13T19:43:14.303Z,101822.88
2023-05-13T19:45:40.805Z,101826.66
2023-05-13T19:48:07.398Z,101830.44
2023-05-13T19:50:34.001Z,101827.19
2023-05-13T19:53:00.584Z,101828.38
2023-05-13T19:55:27.080Z,101831.22
2023-05-13T19:57:53.627Z,101826.03
2023-05-13T20:00:20.182Z,101833.16
2023-05-13T22:01:34.050Z,101811.59
2023-05-13T22:04:00.605Z,101808.06
2023-05-13T22:06:27.140Z,101809.00
2023-05-13T22:08:53.731Z,101818.91
2023-05-13T22:11:20.309Z,101814.56
2023-05-13T22:13:46.865Z,101818.28
2023-05-13T22:16:13.626Z,101808.56
2023-05-13T22:18:41.104Z,101814.91
2023-05-13T22:21:07.815Z,101815.16
2023-05-13T22:23:34.335Z,101812.72
2023-05-13T22:26:00.927Z,101810.16
2023-05-13T22:28:27.496Z,101806.72
2023-05-13T22:30:54.045Z,101813.81
2023-05-13T22:33:20.600Z,101807.56
2023-05-13T22:35:47.196Z,101805.97
2023-05-13T22:38:13.743Z,101808.84
2023-05-13T22:40:40.329Z,101809.81
2023-05-13T22:43:06.860Z,101815.38
2023-05-13T22:45:33.427Z,101810.13
2023-05-13T22:48:00.063Z,101807.63
2023-05-13T22:50:26.678Z,101801.69
2023-05-13T22:52:53.298Z,101797.34
2023-05-13T22:55:19.837Z,101790.38
2023-05-13T22:57:46.405Z,101801.97
2023-05-13T23:00:13.432Z,101792.22
2023-05-13T23:02:40.088Z,101798.34
2023-05-13T23:05:06.859Z,101790.31
2023-05-13T23:07:33.427Z,101787.56
2023-05-13T23:09:59.939Z,101791.97
2023-05-13T23:12:26.536Z,101794.66
2023-05-13T23:14:54.285Z,101791.88
2023-05-13T23:17:20.902Z,101790.09
2023-05-13T23:19:47.465Z,101781.25
2023-05-13T23:22:14.019Z,101791.81
2023-05-13T23:24:40.559Z,101790.97
2023-05-13T23:27:07.129Z,101790.22
2023-05-13T23:29:33.675Z,101790.31
2023-05-13T23:32:00.283Z,101787.63
2023-05-13T23:34:26.829Z,101799.25
2023-05-13T23:36:53.405Z,101791.22
2023-05-13T23:39:19.958Z,101785.91
2023-05-13T23:41:46.555Z,101784.28
2023-05-13T23:44:13.093Z,101787.00
2023-05-13T23:46:39.625Z,101785.34
2023-05-13T23:49:06.191Z,101777.44
2023-05-13T23:51:32.730Z,101772.16
2023-05-13T23:53:59.279Z,101771.34
2023-05-13T23:56:25.850Z,101775.97
2023-05-13T23:58:52.440Z,101772.56
